Time;durP1;ratioP1;P1;durP2;ratioP2;P2;SDS_P1;SDS_P2;PMS_P1;PMS_P2;Temp;Humidity;BMP_temperature;BMP_pressure;BME280_temperature;BME280_humidity;BME280_pressure;Samples;Min_cycle;Max_cycle;Signal;HPM_P1;HPM_P2
2022/06/02 00:01:15;;;;;;;2.00;1.90;;;10.90;99.90;;;;;;481357;247;28624;-74
2022/06/02 00:03:16;;;;;;;1.93;1.87;;;10.80;99.90;;;;;;481354;247;28034;-71
2022/06/02 00:05:17;;;;;;;2.20;2.10;;;10.80;99.90;;;;;;481331;247;28236;-72
2022/06/02 00:07:19;;;;;;;2.30;2.10;;;10.80;99.90;;;;;;481326;247;28099;-71
2022/06/02 00:09:20;;;;;;;2.10;2.10;;;10.70;99.90;;;;;;481311;247;28151;-71
2022/06/02 00:11:21;;;;;;;2.00;1.90;;;10.60;99.90;;;;;;481346;247;28252;-73
2022/06/02 00:13:22;;;;;;;2.20;2.10;;;10.50;99.90;;;;;;481338;247;28169;-71
2022/06/02 00:15:25;;;;;;;2.10;2.00;;;10.50;99.90;;;;;;481344;247;28157;-71
2022/06/02 00:17:25;;;;;;;2.20;2.10;;;10.50;99.90;;;;;;481222;247;27990;-71
2022/06/02 00:19:27;;;;;;;2.20;2.10;;;10.50;99.90;;;;;;481337;247;28305;-72
2022/06/02 00:21:27;;;;;;;2.20;2.10;;;10.50;99.90;;;;;;481348;247;28659;-72
2022/06/02 00:23:29;;;;;;;2.20;2.10;;;10.40;99.90;;;;;;481361;247;28607;-71
2022/06/02 00:25:30;;;;;;;1.83;1.83;;;10.30;99.90;;;;;;481345;247;28667;-71
2022/06/02 00:27:31;;;;;;;2.10;2.00;;;10.30;99.90;;;;;;481370;247;28028;-71
2022/06/02 00:29:32;;;;;;;2.50;2.40;;;10.30;99.90;;;;;;481353;246;28047;-71
2022/06/02 00:31:34;;;;;;;2.50;2.40;;;10.30;99.90;;;;;;481391;247;28049;-74
2022/06/02 00:33:35;;;;;;;2.80;2.70;;;10.20;99.90;;;;;;481373;247;28010;-70
2022/06/02 00:35:36;;;;;;;2.27;2.17;;;10.20;99.90;;;;;;481387;247;28141;-72
2022/06/02 00:37:37;;;;;;;1.93;1.90;;;10.20;99.90;;;;;;481371;247;27980;-70
2022/06/02 00:39:39;;;;;;;2.33;2.23;;;10.20;99.90;;;;;;481338;247;27960;-71
2022/06/02 00:41:40;;;;;;;2.17;2.07;;;10.10;99.90;;;;;;481386;247;28067;-74
2022/06/02 00:43:41;;;;;;;2.20;2.10;;;10.10;99.90;;;;;;481353;247;28005;-71
2022/06/02 00:45:42;;;;;;;2.30;2.20;;;10.00;99.90;;;;;;481347;246;28337;-72
2022/06/02 00:47:44;;;;;;;2.33;2.23;;;10.00;99.90;;;;;;481337;247;28209;-71
2022/06/02 00:49:45;;;;;;;2.30;2.20;;;10.00;99.90;;;;;;481325;247;28621;-71
2022/06/02 00:51:48;;;;;;;2.20;2.00;;;9.90;99.90;;;;;;481377;247;28385;-73
2022/06/02 00:57:30;;;;;;;2.20;2.10;;;9.80;99.90;;;;;;481279;247;27886;-71
2022/06/02 00:58:09;;;;;;;2.30;2.20;;;9.80;99.90;;;;;;481341;247;27912;-72
2022/06/02 01:00:11;;;;;;;2.30;2.20;;;9.70;99.90;;;;;;481313;247;27893;-69
2022/06/02 01:02:11;;;;;;;2.07;1.97;;;9.60;99.90;;;;;;481249;247;28035;-73
2022/06/02 01:04:12;;;;;;;2.37;2.27;;;9.60;99.90;;;;;;481343;247;28071;-71
2022/06/02 01:06:13;;;;;;;2.70;2.53;;;9.50;99.90;;;;;;481330;247;27921;-71
2022/06/02 01:08:14;;;;;;;2.20;2.00;;;9.50;99.90;;;;;;481368;247;27999;-74
2022/06/02 01:10:16;;;;;;;2.40;2.30;;;9.50;99.90;;;;;;481371;247;27879;-71
2022/06/02 01:12:17;;;;;;;2.10;2.00;;;9.50;99.90;;;;;;481362;247;28464;-72
2022/06/02 01:14:18;;;;;;;2.43;2.33;;;9.60;99.90;;;;;;481376;247;28201;-71
2022/06/02 01:16:19;;;;;;;2.50;2.40;;;9.60;99.90;;;;;;481332;247;28493;-71
2022/06/02 01:18:21;;;;;;;2.33;2.23;;;9.60;99.90;;;;;;481378;247;28368;-74
2022/06/02 01:20:22;;;;;;;2.37;2.27;;;9.60;99.90;;;;;;481379;247;28229;-70
2022/06/02 01:22:23;;;;;;;2.30;2.20;;;9.60;99.90;;;;;;481369;247;28493;-72
2022/06/02 01:24:24;;;;;;;2.40;2.30;;;9.50;99.90;;;;;;481353;247;27503;-72
2022/06/02 01:26:26;;;;;;;2.30;2.20;;;9.50;99.90;;;;;;481356;247;27897;-72
2022/06/02 01:28:27;;;;;;;2.23;2.13;;;9.50;99.90;;;;;;481360;247;27816;-71
2022/06/02 01:30:28;;;;;;;2.53;2.40;;;9.40;99.90;;;;;;481374;247;28051;-71
2022/06/02 01:32:29;;;;;;;2.40;2.20;;;9.40;99.90;;;;;;481364;247;27785;-72
2022/06/02 01:34:31;;;;;;;2.50;2.40;;;9.40;99.90;;;;;;481371;247;27954;-70
2022/06/02 01:36:32;;;;;;;2.50;2.30;;;9.30;99.90;;;;;;481358;247;27943;-71
2022/06/02 01:38:33;;;;;;;2.40;2.30;;;9.20;99.90;;;;;;481347;247;27923;-72
2022/06/02 01:40:34;;;;;;;2.40;2.30;;;9.20;99.90;;;;;;481389;247;27532;-71
2022/06/02 01:42:36;;;;;;;2.30;2.20;;;9.20;99.90;;;;;;481381;247;27869;-72
2022/06/02 01:44:37;;;;;;;2.70;2.50;;;9.20;99.90;;;;;;481371;247;27849;-71
2022/06/02 01:46:38;;;;;;;2.60;2.50;;;9.20;99.90;;;;;;481351;247;28051;-72
2022/06/02 01:48:39;;;;;;;2.47;2.37;;;9.20;99.90;;;;;;481366;247;27916;-71
2022/06/02 01:50:41;;;;;;;2.60;2.50;;;9.20;99.90;;;;;;481362;247;27894;-71
2022/06/02 01:52:42;;;;;;;2.47;2.37;;;9.10;99.90;;;;;;481372;247;28306;-71
2022/06/02 01:54:43;;;;;;;2.37;2.27;;;9.10;99.90;;;;;;481360;247;28484;-70
2022/06/02 01:56:44;;;;;;;2.80;2.60;;;9.10;99.90;;;;;;481375;247;28431;-71
2022/06/02 01:58:46;;;;;;;2.60;2.50;;;9.00;99.90;;;;;;481413;247;28449;-70
2022/06/02 02:00:47;;;;;;;2.83;2.60;;;9.00;99.90;;;;;;481393;247;28318;-71
2022/06/02 02:02:48;;;;;;;2.57;2.40;;;8.90;99.90;;;;;;481403;247;28001;-73
2022/06/02 02:04:49;;;;;;;2.37;2.27;;;8.80;99.90;;;;;;481394;247;27956;-71
2022/06/02 02:06:51;;;;;;;2.53;2.40;;;8.80;99.90;;;;;;481398;247;27831;-71
2022/06/02 02:08:52;;;;;;;2.23;2.13;;;8.80;99.90;;;;;;481368;247;28003;-74
2022/06/02 02:10:53;;;;;;;2.40;2.30;;;8.90;99.90;;;;;;481380;247;27733;-71
2022/06/02 02:12:55;;;;;;;2.60;2.50;;;8.90;99.90;;;;;;481354;247;28000;-72
2022/06/02 02:14:56;;;;;;;2.50;2.40;;;8.90;99.90;;;;;;481355;247;28348;-71
2022/06/02 02:16:57;;;;;;;2.80;2.53;;;8.80;99.90;;;;;;481369;247;27586;-71
2022/06/02 02:18:58;;;;;;;2.47;2.37;;;8.60;99.90;;;;;;481399;247;28192;-72
2022/06/02 02:21:00;;;;;;;2.20;2.10;;;8.60;99.90;;;;;;481396;247;27769;-71
2022/06/02 02:23:01;;;;;;;2.30;2.20;;;8.50;99.90;;;;;;481299;247;28059;-71
2022/06/02 02:25:02;;;;;;;2.30;2.20;;;8.50;99.90;;;;;;481399;247;27528;-71
2022/06/02 02:27:03;;;;;;;2.50;2.40;;;8.50;99.90;;;;;;481358;247;27953;-71
2022/06/02 02:29:04;;;;;;;2.60;2.50;;;8.50;99.90;;;;;;481365;247;27913;-73
2022/06/02 02:31:06;;;;;;;2.50;2.40;;;8.60;99.90;;;;;;481379;247;28350;-71
2022/06/02 02:33:07;;;;;;;2.63;2.50;;;8.60;99.90;;;;;;481360;247;28436;-72
2022/06/02 02:35:08;;;;;;;2.13;2.03;;;8.60;99.90;;;;;;481382;247;28418;-70
2022/06/02 02:37:09;;;;;;;2.73;2.50;;;8.60;99.90;;;;;;481351;247;28360;-72
2022/06/02 02:39:11;;;;;;;2.90;2.70;;;8.50;99.90;;;;;;481354;247;28562;-71
2022/06/02 02:41:12;;;;;;;2.30;2.20;;;8.50;99.90;;;;;;481379;247;28456;-71
2022/06/02 02:43:13;;;;;;;2.30;2.20;;;8.40;99.90;;;;;;481368;247;27560;-73
2022/06/02 02:45:15;;;;;;;2.50;2.40;;;8.30;99.90;;;;;;481370;247;28022;-71
2022/06/02 02:47:16;;;;;;;2.97;2.27;;;8.20;99.90;;;;;;481366;247;27666;-71
2022/06/02 02:49:17;;;;;;;2.57;2.47;;;8.20;99.90;;;;;;481344;247;27987;-71
2022/06/02 02:51:18;;;;;;;2.50;2.40;;;8.30;99.90;;;;;;481352;247;27898;-71
2022/06/02 02:53:19;;;;;;;2.57;2.47;;;8.30;99.90;;;;;;481349;247;28008;-72
2022/06/02 02:55:21;;;;;;;2.90;2.70;;;8.30;99.90;;;;;;481348;247;27769;-71
2022/06/02 02:57:22;;;;;;;2.50;2.40;;;8.20;99.90;;;;;;481343;247;27807;-71
2022/06/02 02:59:23;;;;;;;2.67;2.57;;;8.10;99.90;;;;;;481369;247;27852;-71
2022/06/02 03:01:24;;;;;;;2.87;2.67;;;8.10;99.90;;;;;;481370;247;27889;-71
2022/06/02 03:03:26;;;;;;;2.50;2.40;;;8.20;99.90;;;;;;481372;247;27548;-72
2022/06/02 03:05:27;;;;;;;2.60;2.50;;;8.30;99.90;;;;;;481360;246;28138;-71
2022/06/02 03:07:29;;;;;;;2.50;2.40;;;8.30;99.90;;;;;;481328;246;27649;-70
2022/06/02 03:09:29;;;;;;;2.77;2.67;;;8.30;99.90;;;;;;481303;247;27603;-71
2022/06/02 03:11:31;;;;;;;2.80;2.60;;;8.30;99.90;;;;;;481302;247;28471;-71
2022/06/02 03:13:32;;;;;;;2.90;2.70;;;8.30;99.90;;;;;;481276;247;28393;-72
2022/06/02 03:15:33;;;;;;;2.53;2.43;;;8.20;99.90;;;;;;481314;247;28326;-71
2022/06/02 03:17:34;;;;;;;2.50;2.30;;;8.20;99.90;;;;;;481261;246;28415;-71
2022/06/02 03:19:37;;;;;;;2.50;2.40;;;8.20;99.90;;;;;;481327;247;29089;-71
2022/06/02 03:21:37;;;;;;;2.30;2.20;;;8.10;99.90;;;;;;481265;247;28012;-71
2022/06/02 03:23:38;;;;;;;2.37;2.17;;;8.10;99.90;;;;;;481324;247;27923;-73
2022/06/02 03:25:39;;;;;;;2.20;2.10;;;8.10;99.90;;;;;;481317;247;27879;-70
2022/06/02 03:27:41;;;;;;;2.07;1.97;;;8.00;99.90;;;;;;481305;247;28043;-72
2022/06/02 03:29:42;;;;;;;2.50;2.00;;;8.10;99.90;;;;;;481358;247;27758;-70
2022/06/02 03:31:43;;;;;;;2.60;2.10;;;8.10;99.90;;;;;;481387;247;27777;-71
2022/06/02 03:33:44;;;;;;;2.30;2.20;;;8.10;99.90;;;;;;481368;247;27928;-72
2022/06/02 03:35:46;;;;;;;2.20;2.10;;;8.10;99.90;;;;;;481351;247;27880;-71
2022/06/02 03:37:47;;;;;;;2.23;2.13;;;8.00;99.90;;;;;;481345;247;27914;-71
2022/06/02 03:39:48;;;;;;;2.00;1.90;;;7.90;99.90;;;;;;481344;247;27891;-71
2022/06/02 03:41:49;;;;;;;1.90;1.80;;;7.90;99.90;;;;;;481356;247;28073;-70
2022/06/02 03:43:54;;;;;;;2.17;2.07;;;7.90;99.90;;;;;;481360;247;27697;-72
2022/06/02 03:45:52;;;;;;;2.30;2.20;;;7.90;99.90;;;;;;481163;247;27873;-71
2022/06/02 03:47:53;;;;;;;2.30;2.20;;;8.00;99.90;;;;;;481346;247;27956;-71
2022/06/02 03:49:54;;;;;;;2.37;2.27;;;8.00;99.90;;;;;;481357;247;28642;-71
2022/06/02 03:51:56;;;;;;;2.20;2.10;;;7.90;99.90;;;;;;481371;247;28421;-71
2022/06/02 03:53:57;;;;;;;2.10;2.00;;;7.90;99.90;;;;;;481361;247;28522;-72
2022/06/02 03:55:58;;;;;;;2.40;2.30;;;8.00;99.90;;;;;;481347;247;28230;-71
2022/06/02 03:57:59;;;;;;;3.30;2.47;;;8.00;99.90;;;;;;481343;247;28376;-71
2022/06/02 04:00:01;;;;;;;2.33;2.20;;;7.90;99.90;;;;;;481327;247;28620;-70
2022/06/02 04:02:02;;;;;;;3.03;2.20;;;8.00;99.90;;;;;;481367;247;27939;-71
2022/06/02 04:04:03;;;;;;;2.30;2.20;;;8.00;99.90;;;;;;481366;247;27762;-73
2022/06/02 04:06:06;;;;;;;2.10;2.00;;;8.00;99.90;;;;;;481348;247;28043;-71
2022/06/02 04:08:06;;;;;;;2.50;2.40;;;8.00;99.90;;;;;;481289;247;27924;-71
2022/06/02 04:10:07;;;;;;;2.60;2.50;;;8.00;99.90;;;;;;481353;247;27976;-70
2022/06/02 04:14:27;;;;;;;2.30;2.20;;;7.80;99.90;;;;;;481379;247;27889;-72
2022/06/02 04:16:29;;;;;;;2.63;2.47;;;7.80;99.90;;;;;;481385;247;27640;-71
2022/06/02 04:18:30;;;;;;;2.53;2.43;;;7.80;99.90;;;;;;481371;247;27876;-71
2022/06/02 04:20:37;;;;;;;2.40;2.30;;;7.90;99.90;;;;;;481354;247;27962;-71
2022/06/02 04:22:38;;;;;;;3.47;3.17;;;7.90;99.90;;;;;;481370;247;28474;-71
2022/06/02 04:24:39;;;;;;;2.70;2.60;;;8.00;99.90;;;;;;481370;247;28486;-73
2022/06/02 04:26:41;;;;;;;2.50;2.40;;;8.10;99.90;;;;;;481362;247;28360;-71
2022/06/02 04:28:42;;;;;;;2.83;2.70;;;8.10;99.90;;;;;;481355;247;27927;-71
2022/06/02 04:30:43;;;;;;;3.20;3.00;;;8.30;99.90;;;;;;481363;247;27873;-71
2022/06/02 04:32:45;;;;;;;3.40;3.20;;;8.40;99.90;;;;;;481365;247;27616;-72
2022/06/02 04:34:46;;;;;;;3.23;2.93;;;8.30;99.90;;;;;;481368;247;28098;-74
2022/06/02 04:36:47;;;;;;;2.80;2.70;;;8.20;99.90;;;;;;481285;247;27887;-71
2022/06/02 04:38:49;;;;;;;6.03;3.00;;;8.30;99.90;;;;;;481350;247;27906;-71
2022/06/02 04:40:50;;;;;;;2.80;2.70;;;8.20;99.90;;;;;;481346;247;27926;-71
2022/06/02 04:42:51;;;;;;;2.70;2.60;;;8.20;99.90;;;;;;481337;246;28010;-71
2022/06/02 04:44:52;;;;;;;3.80;3.60;;;8.40;99.90;;;;;;481360;246;28135;-74
2022/06/02 04:46:53;;;;;;;3.40;3.30;;;8.50;99.90;;;;;;481315;247;27978;-71
2022/06/02 04:48:54;;;;;;;3.13;2.93;;;8.60;99.90;;;;;;481293;247;27899;-72
2022/06/02 04:50:56;;;;;;;2.87;2.77;;;8.60;99.90;;;;;;481299;247;27953;-71
2022/06/02 04:52:57;;;;;;;2.53;2.43;;;8.60;99.90;;;;;;481347;247;27943;-71
2022/06/02 04:54:58;;;;;;;2.83;2.73;;;8.60;99.90;;;;;;481332;247;27833;-74
2022/06/02 04:56:59;;;;;;;2.70;2.60;;;8.60;99.90;;;;;;481343;247;28196;-71
2022/06/02 04:59:01;;;;;;;2.50;2.40;;;8.60;99.90;;;;;;481334;247;28020;-72
2022/06/02 05:01:02;;;;;;;3.03;2.73;;;8.60;99.90;;;;;;481356;247;28196;-71
2022/06/02 05:03:03;;;;;;;2.73;2.63;;;8.70;99.90;;;;;;481334;247;28403;-71
2022/06/02 05:05:05;;;;;;;2.70;2.60;;;8.80;99.90;;;;;;481336;247;28575;-73
2022/06/02 05:07:06;;;;;;;3.00;2.80;;;8.80;99.90;;;;;;481325;247;27964;-70
2022/06/02 05:09:07;;;;;;;2.40;2.30;;;8.90;99.90;;;;;;481340;247;27803;-71
2022/06/02 05:11:08;;;;;;;2.40;2.30;;;8.90;99.90;;;;;;481347;247;27925;-71
2022/06/02 05:13:10;;;;;;;2.47;2.37;;;9.00;99.90;;;;;;481340;247;27861;-72
2022/06/02 05:15:11;;;;;;;3.00;2.90;;;9.10;99.90;;;;;;481333;247;27927;-73
2022/06/02 05:17:12;;;;;;;2.60;2.50;;;9.10;99.90;;;;;;481354;247;27774;-71
2022/06/02 05:19:13;;;;;;;2.87;2.77;;;9.20;99.90;;;;;;481329;247;27906;-72
2022/06/02 05:21:14;;;;;;;2.87;2.60;;;9.20;99.90;;;;;;481339;247;27770;-71
2022/06/02 05:23:16;;;;;;;2.50;2.40;;;9.30;99.90;;;;;;481339;247;27923;-72
2022/06/02 05:25:18;;;;;;;2.70;2.50;;;9.40;99.90;;;;;;481363;247;27903;-73
2022/06/02 05:27:18;;;;;;;2.30;2.20;;;9.50;99.90;;;;;;481323;247;27940;-71
2022/06/02 05:29:19;;;;;;;2.30;2.20;;;9.50;99.90;;;;;;481311;247;27993;-71
2022/06/02 05:31:21;;;;;;;2.40;2.30;;;9.50;99.90;;;;;;481336;247;27876;-71
2022/06/02 05:33:22;;;;;;;2.60;2.50;;;9.50;99.90;;;;;;481288;247;27673;-71
2022/06/02 05:35:23;;;;;;;2.63;2.53;;;9.60;99.90;;;;;;481344;247;28464;-73
2022/06/02 05:37:24;;;;;;;2.40;2.30;;;9.50;99.90;;;;;;481349;247;28331;-71
2022/06/02 05:39:26;;;;;;;2.70;2.60;;;9.60;99.90;;;;;;481349;247;28431;-72
2022/06/02 05:41:27;;;;;;;2.50;2.40;;;9.60;99.90;;;;;;481340;247;28529;-70
2022/06/02 05:43:28;;;;;;;2.30;2.20;;;9.80;99.90;;;;;;481331;247;28054;-71
2022/06/02 05:45:29;;;;;;;2.50;2.40;;;9.90;99.90;;;;;;481338;247;28026;-71
2022/06/02 05:47:31;;;;;;;2.27;2.17;;;10.00;99.90;;;;;;481337;247;27948;-72
2022/06/02 05:49:32;;;;;;;2.60;2.50;;;10.10;99.90;;;;;;481336;247;27796;-71
2022/06/02 05:51:33;;;;;;;2.27;2.17;;;10.20;99.90;;;;;;481331;247;27951;-71
2022/06/02 05:53:34;;;;;;;2.50;2.40;;;10.20;99.90;;;;;;481357;247;27949;-71
2022/06/02 05:55:36;;;;;;;2.57;2.47;;;10.30;99.90;;;;;;481385;247;27963;-71
2022/06/02 05:57:41;;;;;;;4.43;3.53;;;10.30;99.90;;;;;;481389;247;27832;-71
2022/06/02 05:59:38;;;;;;;3.23;3.03;;;10.90;99.90;;;;;;481128;247;28129;-72
2022/06/02 06:01:42;;;;;;;4.97;3.27;;;11.20;99.90;;;;;;481356;247;27949;-71
2022/06/02 06:03:41;;;;;;;4.13;3.73;;;11.40;99.90;;;;;;481124;247;28721;-71
2022/06/02 06:05:42;;;;;;;3.70;3.50;;;11.60;99.90;;;;;;481379;247;28748;-71
2022/06/02 06:07:43;;;;;;;5.87;4.93;;;11.90;99.90;;;;;;481391;247;28657;-72
2022/06/02 06:09:45;;;;;;;4.00;3.70;;;12.10;99.90;;;;;;481405;247;28640;-72
2022/06/02 06:11:46;;;;;;;3.77;3.57;;;12.10;99.90;;;;;;481402;247;28016;-71
2022/06/02 06:13:47;;;;;;;4.10;3.47;;;12.00;99.90;;;;;;481369;247;28132;-71
2022/06/02 06:15:48;;;;;;;4.10;3.70;;;12.20;99.90;;;;;;481374;247;28043;-71
2022/06/02 06:17:49;;;;;;;3.90;3.70;;;12.20;99.90;;;;;;481369;247;28199;-71
2022/06/02 06:19:52;;;;;;;4.93;3.40;;;;;;;;;;481384;247;28389;-72
2022/06/02 06:21:53;;;;;;;4.43;3.60;;;12.30;99.90;;;;;;481350;247;27614;-72
2022/06/02 06:23:54;;;;;;;5.30;4.10;;;12.40;99.90;;;;;;481319;247;28266;-71
2022/06/02 06:25:56;;;;;;;4.43;4.13;;;12.50;99.90;;;;;;481343;247;28205;-72
2022/06/02 06:27:57;;;;;;;4.10;3.80;;;12.60;99.90;;;;;;481370;247;28483;-74
2022/06/02 06:29:58;;;;;;;5.20;4.80;;;12.60;99.90;;;;;;481342;247;28241;-71
2022/06/02 06:31:59;;;;;;;3.43;3.20;;;12.70;99.90;;;;;;481337;246;28478;-72
2022/06/02 06:34:02;;;;;;;4.10;3.80;;;12.70;99.90;;;;;;481366;247;28328;-71
2022/06/02 06:36:02;;;;;;;4.63;4.30;;;12.70;99.90;;;;;;481246;247;28357;-72
2022/06/02 06:38:03;;;;;;;3.70;3.50;;;12.80;99.90;;;;;;481388;247;28878;-73
2022/06/02 06:40:04;;;;;;;3.87;3.57;;;12.90;99.90;;;;;;481362;247;28918;-72
2022/06/02 06:42:06;;;;;;;4.47;3.90;;;12.90;99.90;;;;;;481349;247;28751;-72
2022/06/02 06:44:07;;;;;;;4.57;4.27;;;13.00;99.90;;;;;;481350;247;28903;-71
2022/06/02 06:46:08;;;;;;;4.03;3.63;;;13.10;99.90;;;;;;481350;247;28460;-72
2022/06/02 06:48:09;;;;;;;3.97;3.57;;;13.10;99.90;;;;;;481271;247;28290;-73
2022/06/02 06:50:11;;;;;;;3.70;3.40;;;13.20;99.90;;;;;;481361;247;28454;-71
2022/06/02 06:52:12;;;;;;;3.40;3.13;;;13.20;99.90;;;;;;481351;247;28550;-72
2022/06/02 06:54:13;;;;;;;4.03;3.73;;;13.20;99.90;;;;;;481348;247;28137;-72
2022/06/02 06:56:14;;;;;;;4.07;3.77;;;13.20;99.90;;;;;;481357;247;28788;-72
2022/06/02 06:58:16;;;;;;;5.00;4.17;;;13.30;99.90;;;;;;481371;247;28793;-73
2022/06/02 07:00:19;;;;;;;4.40;4.10;;;13.40;99.90;;;;;;481348;247;28122;-72
2022/06/02 07:02:18;;;;;;;4.53;4.20;;;13.50;99.90;;;;;;481237;247;28852;-72
2022/06/02 07:04:19;;;;;;;3.73;3.50;;;13.50;99.90;;;;;;481345;247;28662;-71
2022/06/02 07:06:21;;;;;;;3.47;3.27;;;13.50;99.90;;;;;;481343;247;28599;-71
2022/06/02 07:08:22;;;;;;;3.70;3.40;;;13.50;99.90;;;;;;481315;247;28606;-75
2022/06/02 07:10:23;;;;;;;3.47;3.27;;;13.60;99.90;;;;;;481351;247;28209;-72
2022/06/02 07:14:44;;;;;;;4.03;3.53;;;13.60;99.90;;;;;;481362;247;28556;-72
2022/06/02 07:16:45;;;;;;;3.13;2.83;;;13.90;99.90;;;;;;481282;247;28113;-72
2022/06/02 07:18:46;;;;;;;2.90;2.80;;;14.00;99.90;;;;;;481375;247;28157;-72
2022/06/02 07:20:48;;;;;;;2.93;2.73;;;13.90;99.90;;;;;;481367;247;28362;-72
2022/06/02 07:22:49;;;;;;;2.80;2.70;;;14.00;99.90;;;;;;481366;247;28647;-72
2022/06/02 07:24:50;;;;;;;3.07;2.90;;;14.10;99.90;;;;;;481373;247;29146;-74
2022/06/02 07:26:51;;;;;;;3.07;2.80;;;14.20;99.90;;;;;;481384;247;28889;-72
2022/06/02 07:28:53;;;;;;;2.67;2.57;;;14.10;99.90;;;;;;481362;247;28837;-72
2022/06/02 07:30:54;;;;;;;3.00;2.70;;;14.00;99.90;;;;;;481342;247;28441;-72
2022/06/02 07:32:55;;;;;;;2.67;2.57;;;13.90;99.90;;;;;;481387;247;28307;-72
2022/06/02 07:34:56;;;;;;;3.63;3.30;;;14.20;99.90;;;;;;481372;247;28162;-74
2022/06/02 07:36:58;;;;;;;2.70;2.50;;;14.30;99.90;;;;;;481353;247;28436;-72
2022/06/02 07:38:59;;;;;;;2.80;2.70;;;14.30;99.90;;;;;;481363;246;28385;-72
2022/06/02 07:41:00;;;;;;;2.60;2.40;;;14.40;99.90;;;;;;481351;247;28118;-72
2022/06/02 07:43:02;;;;;;;2.70;2.60;;;14.60;99.90;;;;;;481339;247;28350;-72
2022/06/02 07:45:03;;;;;;;2.87;2.70;;;14.60;99.90;;;;;;481329;247;28513;-75
2022/06/02 07:47:04;;;;;;;2.40;2.30;;;14.60;99.90;;;;;;481315;247;28622;-72
2022/06/02 07:49:05;;;;;;;2.83;2.73;;;14.70;99.90;;;;;;481350;247;29119;-72
2022/06/02 07:51:06;;;;;;;3.30;3.10;;;14.70;99.90;;;;;;481352;247;28510;-72
2022/06/02 07:53:08;;;;;;;2.80;2.60;;;14.60;99.90;;;;;;481322;247;29048;-73
2022/06/02 07:55:09;;;;;;;2.73;2.63;;;14.70;99.90;;;;;;481345;247;28494;-72
2022/06/02 07:57:10;;;;;;;2.60;2.50;;;14.80;99.90;;;;;;481346;247;28759;-72
2022/06/02 07:59:11;;;;;;;2.70;2.50;;;14.90;99.90;;;;;;481368;247;28853;-72
2022/06/02 08:01:13;;;;;;;2.90;2.70;;;14.90;99.90;;;;;;481341;247;28762;-72
2022/06/02 08:03:14;;;;;;;3.03;2.80;;;15.10;99.90;;;;;;481319;247;28866;-72
2022/06/02 08:05:15;;;;;;;2.67;2.57;;;15.20;99.90;;;;;;481343;247;28792;-72
2022/06/02 08:07:16;;;;;;;2.40;2.20;;;15.20;99.90;;;;;;481354;247;28767;-72
2022/06/02 08:09:19;;;;;;;2.10;2.00;;;15.30;99.90;;;;;;481362;247;28867;-72
2022/06/02 08:11:19;;;;;;;2.53;2.30;;;15.40;99.90;;;;;;481286;247;28786;-72
2022/06/02 08:13:20;;;;;;;2.40;2.20;;;15.50;99.90;;;;;;481324;247;29282;-73
2022/06/02 08:15:21;;;;;;;2.20;2.10;;;15.60;99.90;;;;;;481336;247;29348;-72
2022/06/02 08:17:23;;;;;;;2.10;2.00;;;15.60;99.90;;;;;;481345;247;29238;-72
2022/06/02 08:19:24;;;;;;;1.93;1.73;;;15.80;99.90;;;;;;481354;247;28907;-72
2022/06/02 08:21:25;;;;;;;2.00;1.80;;;15.70;99.90;;;;;;481338;247;28746;-72
2022/06/02 08:23:26;;;;;;;1.80;1.70;;;15.70;99.90;;;;;;481348;247;28875;-72
2022/06/02 08:25:28;;;;;;;1.97;1.87;;;15.80;99.90;;;;;;481360;247;28769;-71
2022/06/02 08:27:30;;;;;;;3.67;1.83;;;15.80;99.90;;;;;;481349;247;28766;-72
2022/06/02 08:29:31;;;;;;;1.60;1.50;;;15.90;99.90;;;;;;481316;247;28827;-72
2022/06/02 08:31:32;;;;;;;2.03;1.93;;;16.00;99.90;;;;;;481352;247;28837;-72
2022/06/02 08:33:33;;;;;;;2.77;1.90;;;16.10;99.90;;;;;;481371;247;28861;-72
2022/06/02 08:35:34;;;;;;;1.87;1.77;;;16.10;99.90;;;;;;481342;247;28875;-73
2022/06/02 08:37:36;;;;;;;1.80;1.73;;;16.50;99.90;;;;;;481354;247;28881;-72
2022/06/02 08:39:37;;;;;;;2.00;1.87;;;16.60;99.90;;;;;;481363;247;29333;-72
2022/06/02 08:41:38;;;;;;;1.87;1.77;;;16.80;99.90;;;;;;481362;247;29968;-72
2022/06/02 08:43:39;;;;;;;1.90;1.80;;;16.60;99.90;;;;;;481329;247;29331;-72
2022/06/02 08:45:41;;;;;;;2.20;2.00;;;16.50;99.90;;;;;;481348;247;28824;-74
2022/06/02 08:47:42;;;;;;;2.10;1.90;;;16.30;99.90;;;;;;481340;247;28751;-72
2022/06/02 08:49:43;;;;;;;2.90;2.20;;;16.30;99.90;;;;;;481344;247;28806;-72
2022/06/02 08:51:44;;;;;;;1.93;1.83;;;16.20;99.90;;;;;;481356;246;28743;-72
2022/06/02 08:53:46;;;;;;;2.43;2.07;;;16.30;99.90;;;;;;481367;247;28837;-72
2022/06/02 08:55:47;;;;;;;2.00;1.90;;;16.40;99.90;;;;;;481363;247;28804;-73
2022/06/02 08:57:48;;;;;;;2.10;2.00;;;16.40;99.90;;;;;;481377;247;28905;-72
2022/06/02 08:59:49;;;;;;;3.80;2.00;;;16.40;99.90;;;;;;481377;247;28876;-72
2022/06/02 09:01:51;;;;;;;2.00;1.90;;;16.40;99.90;;;;;;481355;247;28784;-72
2022/06/02 09:03:53;;;;;;;1.87;1.77;;;16.60;99.90;;;;;;481317;247;29361;-73
2022/06/02 09:05:53;;;;;;;2.00;1.90;;;16.50;99.90;;;;;;481306;247;29241;-73
2022/06/02 09:07:54;;;;;;;1.80;1.70;;;16.80;99.90;;;;;;481356;247;29292;-72
2022/06/02 09:09:56;;;;;;;1.80;1.70;;;17.00;99.90;;;;;;481335;247;29337;-73
2022/06/02 09:11:57;;;;;;;1.90;1.80;;;17.20;99.90;;;;;;481360;247;28829;-72
2022/06/02 09:13:59;;;;;;;2.27;1.90;;;17.20;99.90;;;;;;481310;247;28793;-72
2022/06/02 09:15:59;;;;;;;1.97;1.87;;;17.10;99.90;;;;;;481304;247;28868;-75
2022/06/02 09:18:01;;;;;;;3.43;1.80;;;17.30;99.90;;;;;;481342;247;28746;-72
2022/06/02 09:20:03;;;;;;;1.93;1.83;;;17.30;99.90;;;;;;481339;247;28802;-73
2022/06/02 09:22:03;;;;;;;2.50;2.30;;;16.70;99.90;;;;;;481318;247;28754;-72
2022/06/02 09:24:04;;;;;;;1.90;1.80;;;16.70;99.90;;;;;;481336;247;28791;-72
2022/06/02 09:26:06;;;;;;;1.70;1.60;;;16.80;99.90;;;;;;481344;247;28793;-73
2022/06/02 09:28:07;;;;;;;2.07;1.80;;;16.90;99.90;;;;;;481329;247;29207;-72
2022/06/02 09:30:08;;;;;;;4.43;2.50;;;16.90;99.90;;;;;;481375;247;29298;-72
2022/06/02 09:32:09;;;;;;;1.80;1.70;;;16.50;99.90;;;;;;481347;247;29274;-72
2022/06/02 09:34:11;;;;;;;2.00;1.80;;;16.80;99.90;;;;;;481345;247;29225;-73
2022/06/02 09:36:12;;;;;;;1.83;1.73;;;16.90;99.90;;;;;;481342;247;28902;-74
2022/06/02 09:38:13;;;;;;;2.17;2.07;;;17.10;99.90;;;;;;481376;247;28846;-73
2022/06/02 09:40:15;;;;;;;2.43;2.00;;;17.20;99.90;;;;;;481352;247;28781;-73
2022/06/02 09:42:16;;;;;;;3.50;2.33;;;17.40;99.90;;;;;;481364;247;28822;-72
2022/06/02 09:44:17;;;;;;;2.40;2.20;;;17.30;99.90;;;;;;481352;247;28758;-73
2022/06/02 09:46:18;;;;;;;2.10;1.90;;;17.30;99.90;;;;;;481370;247;28894;-73
2022/06/02 09:48:19;;;;;;;3.13;2.20;;;17.40;99.90;;;;;;481377;247;28802;-72
2022/06/02 09:50:21;;;;;;;4.50;2.00;;;17.40;99.90;;;;;;481345;247;28902;-73
2022/06/02 09:52:22;;;;;;;2.17;1.90;;;17.50;99.90;;;;;;481362;247;28901;-72
2022/06/02 09:54:23;;;;;;;3.00;2.00;;;17.40;99.90;;;;;;481355;247;29317;-73
2022/06/02 09:56:24;;;;;;;6.40;2.10;;;17.30;99.90;;;;;;481357;247;29270;-74
2022/06/02 09:58:26;;;;;;;2.60;2.40;;;17.40;99.90;;;;;;481345;247;29225;-72
2022/06/02 10:00:27;;;;;;;2.20;2.00;;;17.40;99.90;;;;;;481366;247;28779;-72
2022/06/02 10:02:28;;;;;;;2.20;2.00;;;17.30;99.90;;;;;;481361;247;28769;-72
2022/06/02 10:04:29;;;;;;;2.40;2.20;;;17.80;99.90;;;;;;481373;247;28865;-73
2022/06/02 10:06:31;;;;;;;2.70;2.00;;;18.20;99.90;;;;;;481268;247;28781;-73
2022/06/02 10:08:32;;;;;;;3.63;2.37;;;17.60;99.90;;;;;;481363;247;28750;-72
2022/06/02 10:10:34;;;;;;;2.33;2.10;;;17.50;99.90;;;;;;481374;247;28886;-73
2022/06/02 10:14:55;;;;;;;4.53;2.00;;;17.50;99.90;;;;;;481406;247;28771;-72
2022/06/02 10:16:55;;;;;;;3.30;2.00;;;17.80;99.90;;;;;;481336;247;28779;-73
2022/06/02 10:18:57;;;;;;;1.87;1.77;;;18.20;99.90;;;;;;481388;247;29315;-72
2022/06/02 10:20:59;;;;;;;1.73;1.63;;;18.40;99.90;;;;;;481381;247;29278;-72
2022/06/02 10:22:59;;;;;;;1.80;1.70;;;18.10;99.90;;;;;;481286;247;29275;-75
2022/06/02 10:25:00;;;;;;;3.43;1.90;;;18.00;99.90;;;;;;481365;247;28836;-72
2022/06/02 10:27:02;;;;;;;2.27;2.07;;;17.90;99.90;;;;;;481350;247;28870;-73
2022/06/02 10:29:03;;;;;;;3.83;2.40;;;18.10;99.90;;;;;;481376;247;28834;-73
2022/06/02 10:31:04;;;;;;;4.40;1.93;;;18.10;99.90;;;;;;481376;247;28787;-72
2022/06/02 10:33:05;;;;;;;1.80;1.70;;;18.40;99.90;;;;;;481384;247;29139;-72
2022/06/02 10:35:07;;;;;;;2.30;2.10;;;18.60;99.90;;;;;;481368;247;28761;-73
2022/06/02 10:37:08;;;;;;;3.03;2.00;;;18.80;99.90;;;;;;481355;247;28908;-73
2022/06/02 10:39:09;;;;;;;2.77;1.90;;;18.80;99.90;;;;;;481337;247;28898;-72
2022/06/02 10:41:10;;;;;;;2.13;1.93;;;18.90;99.90;;;;;;481234;247;28796;-73
2022/06/02 10:43:12;;;;;;;2.20;1.93;;;19.00;99.90;;;;;;481328;247;29440;-73
2022/06/02 10:45:13;;;;;;;5.13;1.97;;;19.10;99.90;;;;;;481365;247;29206;-72